Terminal Aerodrome Forecast
Issued by NWS Louisville, KY

Home | Current Version | Previous Version | Text Only | Print | Product List | Glossary On
Versions: 1 2 3 4 5 6 7 8 9 10 11 12 13 14 15 16 17 18
000
FTUS43 KLMK 250127 AAA
TAFSDF
TAF AMD
KSDF 250127Z 2501/2606 24012G22KT P6SM -SHRA BKN050
     FM250600 27015KT P6SM OVC040
     FM251400 27017G25KT P6SM BKN030
     FM260100 27007KT P6SM SCT030=

USA.gov is the U.S. government's official web portal to all federal, state and local government web resources and services.